SARL/AOL METAR and TAF weather

Enter ICAO airport designator
Station Type Date Time Source
SARL METAR 2024/03/13 16:00 UTC NOAA

SARL 131600Z 36005KT CAVOK 34/24 Q1009


Station Type Date Time Source
SARL Decoded METAR 2024/03/13 16:00 UTC NOAA

Paso De Los Libres Aerodrome, Argentina (SARL) 29-41S 057-09W 70M
Mar 13, 2024 - 12:00 PM EDT / 2024.03.13 1600 UTC
Wind: from the N (360 degrees) at 6 MPH (5 KT):0
Visibility: greater than 7 mile(s):0
Temperature: 93 F (34 C)
Heat index: 104.5 F (40.3 C):1
Dew Point: 75 F (24 C)
Relative Humidity: 56%
Pressure (altimeter): 29.80 in. Hg (1009 hPa)
ob: SARL 131600Z 36005KT CAVOK 34/24 Q1009
cycle: 16

Station Type Date Time Source
SARL TAF UTC NOAA

Error!

Example: see airport list